Time;durP1;ratioP1;P1;durP2;ratioP2;P2;SDS_P1;SDS_P2;PMS_P1;PMS_P2;Temp;Humidity;BMP_temperature;BMP_pressure;BME280_temperature;BME280_humidity;BME280_pressure;Samples;Min_cycle;Max_cycle;Signal;HPM_P1;HPM_P2
2023/04/22 00:01:42;;;;;;;;;34.25;29.75;;;;;13.65;40.28;100186.09;5060284;28;45177;-60
2023/04/22 00:04:07;;;;;;;;;29.00;28.00;;;;;13.65;40.24;100186.09;5060337;28;45360;-60
2023/04/22 00:06:34;;;;;;;;;25.50;23.00;;;;;13.62;40.30;100186.22;5041610;28;46317;-60
2023/04/22 00:08:59;;;;;;;;;31.75;28.75;;;;;13.62;40.43;100186.22;5059839;28;45178;-60
2023/04/22 00:11:25;;;;;;;;;33.00;29.00;;;;;13.54;40.15;100174.22;5059905;28;45284;-60
2023/04/22 00:13:50;;;;;;;;;36.00;30.50;;;;;13.57;40.49;100189.94;5041813;28;45206;-60
2023/04/22 00:16:15;;;;;;;;;34.75;30.00;;;;;13.55;40.62;100187.34;5059472;28;45337;-62
2023/04/22 00:18:41;;;;;;;;;27.50;26.75;;;;;13.51;40.57;100188.38;5059944;28;45270;-60
2023/04/22 00:21:06;;;;;;;;;28.75;28.50;;;;;13.50;40.64;100189.28;5060004;28;45237;-61
2023/04/22 00:23:32;;;;;;;;;36.00;31.00;;;;;13.47;40.28;100184.09;5060034;28;45225;-61
2023/04/22 00:25:57;;;;;;;;;29.75;27.50;;;;;13.44;40.32;100184.22;5059535;28;46102;-61
2023/04/22 00:28:23;;;;;;;;;38.00;31.25;;;;;13.42;40.19;100172.84;5059760;28;45303;-60
2023/04/22 00:30:48;;;;;;;;;33.25;29.75;;;;;13.42;40.69;100183.41;5059675;28;45300;-60
2023/04/22 00:33:13;;;;;;;;;29.25;29.00;;;;;13.38;40.79;100176.50;5059651;28;45305;-60
2023/04/22 00:35:39;;;;;;;;;32.75;30.00;;;;;13.36;40.71;100179.19;5058328;28;47580;-61
2023/04/22 00:38:04;;;;;;;;;28.50;27.00;;;;;13.32;40.94;100174.94;5041340;28;45322;-61
2023/04/22 00:40:29;;;;;;;;;34.75;30.50;;;;;13.29;40.79;100169.75;5059570;28;45291;-60
2023/04/22 00:42:55;;;;;;;;;29.00;27.00;;;;;13.29;40.81;100182.94;5041710;28;45847;-60
2023/04/22 00:45:21;;;;;;;;;32.25;30.00;;;;;13.27;40.70;100175.09;5059348;28;45973;-60
2023/04/22 00:47:47;;;;;;;;;27.50;25.50;;;;;13.25;40.87;100184.81;5041459;28;45430;-61
2023/04/22 00:50:13;;;;;;;;;28.50;27.50;;;;;13.20;40.91;100173.56;5041558;28;45264;-61
2023/04/22 00:52:39;;;;;;;;;31.50;27.00;;;;;13.19;41.08;100174.47;5059599;28;45252;-62
2023/04/22 00:55:04;;;;;;;;;31.25;28.75;;;;;13.09;40.83;100152.81;5059331;28;46343;-61
2023/04/22 00:57:31;;;;;;;;;28.00;25.00;;;;;13.14;40.89;100169.38;5062996;28;45267;-61
2023/04/22 00:59:57;;;;;;;;;25.75;24.50;;;;;13.13;41.15;100170.28;5062934;28;45266;-61
2023/04/22 01:02:22;;;;;;;;;35.25;31.75;;;;;13.01;40.99;100139.88;5063182;28;45609;-61
2023/04/22 01:04:48;;;;;;;;;29.75;26.25;;;;;13.09;41.21;100159.88;5061465;28;45434;-61
2023/04/22 01:07:13;;;;;;;;;28.50;27.75;;;;;13.05;41.10;100140.66;5062960;28;45312;-61
2023/04/22 01:09:39;;;;;;;;;34.50;30.25;;;;;13.06;41.28;100133.63;5062461;28;45315;-61
2023/04/22 01:12:05;;;;;;;;;35.00;29.75;;;;;13.01;41.26;100133.75;5062774;28;45476;-61
2023/04/22 01:14:30;;;;;;;;;30.50;26.50;;;;;12.99;41.21;100128.56;5062435;28;46124;-61
2023/04/22 01:16:56;;;;;;;;;26.75;24.25;;;;;12.98;41.51;100118.91;5061378;28;45308;-61
2023/04/22 01:19:22;;;;;;;;;31.50;28.75;;;;;12.99;41.31;100125.91;5044864;28;45347;-61
2023/04/22 01:21:50;;;;;;;;;29.00;26.25;;;;;12.93;41.22;100115.56;5062716;28;45210;-61
2023/04/22 01:24:15;;;;;;;;;29.00;26.50;;;;;12.94;41.27;100119.94;5062321;28;45230;-61
2023/04/22 01:26:41;;;;;;;;;26.25;25.25;;;;;12.93;41.34;100112.94;5062705;28;45222;-61
2023/04/22 01:29:06;;;;;;;;;25.75;24.25;;;;;12.94;41.43;100124.31;5044239;28;45250;-61
2023/04/22 01:31:32;;;;;;;;;30.25;27.50;;;;;12.92;41.32;100118.25;5062724;28;45226;-61
2023/04/22 01:33:58;;;;;;;;;29.75;28.75;;;;;12.91;41.27;100116.53;5062246;28;45356;-61
2023/04/22 01:36:24;;;;;;;;;25.25;25.00;;;;;12.88;41.57;100114.88;5062449;28;45467;-61
2023/04/22 01:38:50;;;;;;;;;31.00;28.50;;;;;12.87;41.55;100113.13;5062412;28;45378;-61
2023/04/22 01:41:15;;;;;;;;;25.25;23.00;;;;;12.87;41.44;100114.88;5044152;28;45332;-61
2023/04/22 01:43:41;;;;;;;;;24.50;22.25;;;;;12.88;41.53;100116.63;5062296;28;46349;-61
2023/04/22 01:46:07;;;;;;;;;31.00;27.25;;;;;12.84;41.46;100107.94;5062144;28;45340;-61
2023/04/22 01:48:33;;;;;;;;;31.25;27.50;;;;;12.86;41.59;100097.38;5062297;28;45418;-61
2023/04/22 01:50:59;;;;;;;;;31.75;28.75;;;;;12.84;41.57;100085.09;5044239;28;45258;-61
2023/04/22 01:53:24;;;;;;;;;25.50;23.75;;;;;12.83;41.71;100085.16;5062177;28;45286;-61
2023/04/22 01:55:49;;;;;;;;;29.00;27.75;;;;;12.80;41.69;100082.59;5062200;28;45351;-61
2023/04/22 01:58:15;;;;;;;;;28.50;26.50;;;;;12.80;41.74;100094.03;5062143;28;45423;-61
2023/04/22 02:00:40;;;;;;;;;34.50;28.00;;;;;12.80;41.83;100098.44;5043822;28;45528;-61
2023/04/22 02:03:06;;;;;;;;;25.00;25.00;;;;;12.79;41.74;100078.25;5061942;28;45225;-61
2023/04/22 02:05:31;;;;;;;;;30.50;26.00;;;;;12.78;41.87;100071.25;5062195;28;45289;-61
2023/04/22 02:07:56;;;;;;;;;28.75;28.00;;;;;12.66;41.95;100047.00;5060239;28;45217;-61
2023/04/22 02:10:22;;;;;;;;;28.50;28.00;;;;;12.74;42.17;100056.44;5061771;28;45456;-61
2023/04/22 02:12:47;;;;;;;;;28.50;28.50;;;;;12.70;42.09;100045.13;5061754;28;46022;-61
2023/04/22 02:15:13;;;;;;;;;20.75;20.00;;;;;12.70;41.97;100031.97;5061858;28;45311;-61
2023/04/22 02:17:41;;;;;;;;;22.25;20.00;;;;;12.68;41.90;100047.84;5061922;28;45600;-62
2023/04/22 02:20:09;;;;;;;;;28.00;25.25;;;;;12.65;41.74;100061.13;5061924;28;45326;-61
2023/04/22 02:22:34;;;;;;;;;29.00;27.75;;;;;12.65;41.49;100063.78;5061572;28;47457;-60
2023/04/22 02:25:00;;;;;;;;;28.75;27.75;;;;;12.52;41.86;100055.38;5043482;28;45261;-60
2023/04/22 02:27:26;;;;;;;;;28.00;25.50;;;;;12.60;41.97;100081.50;5061684;28;45294;-60
2023/04/22 02:29:51;;;;;;;;;31.00;25.75;;;;;12.57;41.96;100070.22;5061530;28;45232;-60
2023/04/22 02:32:16;;;;;;;;;33.50;27.50;;;;;12.57;42.14;100078.13;5043143;28;51329;-60
2023/04/22 02:34:42;;;;;;;;;32.25;27.00;;;;;12.52;41.98;100070.34;5043459;28;45191;-61
2023/04/22 02:37:07;;;;;;;;;29.50;26.75;;;;;12.53;42.20;100074.72;5061461;28;45318;-61
2023/04/22 02:39:33;;;;;;;;;28.25;26.25;;;;;12.52;41.96;100067.72;5061452;28;45281;-61
2023/04/22 02:41:58;;;;;;;;;30.25;25.00;;;;;12.49;42.28;100060.78;5061238;28;46204;-61
2023/04/22 02:44:23;;;;;;;;;26.25;24.50;;;;;12.50;42.60;100064.25;5061507;28;45664;-61
2023/04/22 02:46:49;;;;;;;;;25.75;24.25;;;;;12.49;42.31;100075.72;5061352;28;45337;-61
2023/04/22 02:49:14;;;;;;;;;29.50;28.00;;;;;12.50;42.27;100077.44;5061410;28;45369;-61
2023/04/22 02:51:39;;;;;;;;;33.50;28.50;;;;;12.47;42.23;100067.00;5042939;28;47109;-61
2023/04/22 02:54:05;;;;;;;;;24.25;23.75;;;;;12.48;42.34;100072.22;5061257;28;45349;-61
2023/04/22 02:56:30;;;;;;;;;31.50;28.25;;;;;12.49;42.35;100062.53;5060857;28;47051;-61
2023/04/22 02:58:56;;;;;;;;;30.00;29.50;;;;;12.42;42.21;100045.22;5042933;28;45509;-61
2023/04/22 03:01:21;;;;;;;;;29.75;26.75;;;;;12.45;42.57;100056.53;5026226;28;47130;-61
2023/04/22 03:03:46;;;;;;;;;25.00;24.75;;;;;12.44;42.33;100056.56;5061272;28;45317;-61
2023/04/22 03:06:12;;;;;;;;;29.50;26.75;;;;;12.45;42.42;100055.66;5043176;28;45417;-61
2023/04/22 03:08:37;;;;;;;;;29.50;26.25;;;;;12.44;42.48;100048.66;5061236;28;45304;-61
2023/04/22 03:11:03;;;;;;;;;34.50;29.75;;;;;12.44;42.55;100038.09;5045695;28;47340;-61
2023/04/22 03:13:29;;;;;;;;;33.50;30.50;;;;;12.42;42.64;100026.78;5061034;28;45232;-61
2023/04/22 03:15:54;;;;;;;;;30.50;26.50;;;;;12.43;42.57;100031.13;5042573;28;45253;-61
2023/04/22 03:18:19;;;;;;;;;31.00;28.00;;;;;12.41;42.68;100011.88;5059886;28;45218;-61
2023/04/22 03:20:45;;;;;;;;;25.00;23.00;;;;;12.40;42.63;100007.50;5060791;28;45298;-61
2023/04/22 03:23:10;;;;;;;;;30.00;29.50;;;;;12.40;42.75;100007.50;5061058;28;45222;-61
2023/04/22 03:25:35;;;;;;;;;30.00;29.25;;;;;12.39;42.78;99998.75;5060771;28;45300;-61
2023/04/22 03:28:01;;;;;;;;;30.25;26.25;;;;;12.39;42.90;100005.78;5060688;28;45525;-61
2023/04/22 03:30:27;;;;;;;;;26.75;25.00;;;;;12.39;42.94;100005.78;5058978;28;47874;-61
2023/04/22 03:32:52;;;;;;;;;31.50;28.00;;;;;12.38;42.90;100001.41;5042566;28;45392;-61
2023/04/22 03:35:18;;;;;;;;;31.25;27.00;;;;;12.35;42.93;99998.00;5042630;28;45520;-62
2023/04/22 03:37:44;;;;;;;;;32.00;30.75;;;;;12.35;43.05;99998.00;5060459;28;45490;-61
2023/04/22 03:40:10;;;;;;;;;28.75;27.50;;;;;12.36;43.12;100001.47;5060268;28;46212;-61
2023/04/22 03:42:35;;;;;;;;;30.25;25.75;;;;;12.37;43.10;100002.34;5060476;28;45402;-61
2023/04/22 03:45:00;;;;;;;;;33.00;30.00;;;;;12.34;43.11;99995.41;5060348;28;45462;-61
2023/04/22 03:47:26;;;;;;;;;32.00;28.00;;;;;12.35;42.98;100008.53;5060573;28;45327;-61
2023/04/22 03:49:51;;;;;;;;;32.25;30.00;;;;;12.32;43.09;100000.72;5060273;28;46478;-62
2023/04/22 03:52:16;;;;;;;;;34.00;31.25;;;;;12.37;43.32;100005.00;5042313;28;49437;-61
2023/04/22 03:54:41;;;;;;;;;34.50;30.25;;;;;12.35;43.29;99992.72;5060261;28;45383;-62
2023/04/22 03:57:07;;;;;;;;;34.75;30.25;;;;;12.35;43.33;99960.22;5060422;28;45643;-61
2023/04/22 03:59:32;;;;;;;;;35.25;32.50;;;;;12.36;43.36;99972.50;5059977;28;46139;-61
2023/04/22 04:01:58;;;;;;;;;34.00;30.50;;;;;12.37;43.38;99983.91;5060352;28;45224;-61
2023/04/22 04:04:23;;;;;;;;;30.50;27.75;;;;;12.29;43.36;99984.16;5060299;28;45466;-62
2023/04/22 04:06:48;;;;;;;;;29.50;29.50;;;;;12.37;43.54;100005.00;5042016;28;45260;-61
2023/04/22 04:09:14;;;;;;;;;36.75;31.50;;;;;12.33;43.56;99989.28;5059957;28;45202;-62
2023/04/22 04:11:39;;;;;;;;;30.50;28.50;;;;;12.33;43.92;99962.94;5060182;28;45240;-61
2023/04/22 04:14:04;;;;;;;;;34.25;29.25;;;;;12.32;43.73;99961.19;5041824;28;45248;-61
2023/04/22 04:16:30;;;;;;;;;31.25;30.50;;;;;12.38;43.91;99965.41;5060019;28;45226;-62
2023/04/22 04:18:55;;;;;;;;;34.75;32.75;;;;;12.38;43.82;99940.81;5060026;28;45329;-62
2023/04/22 04:21:20;;;;;;;;;34.50;32.00;;;;;12.40;43.74;99916.16;5060005;28;45260;-62
2023/04/22 04:23:46;;;;;;;;;37.25;32.25;;;;;12.41;44.12;99933.69;5060188;28;45179;-62
2023/04/22 04:26:13;;;;;;;;;33.50;31.00;;;;;12.40;43.96;99915.28;5059834;28;45279;-62
2023/04/22 04:28:40;;;;;;;;;33.00;30.00;;;;;12.40;44.33;99910.91;5041799;28;47423;-62
2023/04/22 04:31:06;;;;;;;;;33.25;30.25;;;;;12.41;44.28;99917.88;5061918;28;45260;-61
2023/04/22 04:33:31;;;;;;;;;33.25;30.75;;;;;12.41;44.35;99923.13;5063568;28;45246;-61
2023/04/22 04:35:58;;;;;;;;;42.50;33.50;;;;;12.43;44.33;99963.47;5063431;28;45337;-59
2023/04/22 04:38:26;;;;;;;;;36.75;32.25;;;;;12.44;44.37;99959.94;5062874;28;46158;-59
2023/04/22 04:40:52;;;;;;;;;28.50;27.00;;;;;12.44;44.53;99928.31;5045050;28;46340;-59
2023/04/22 04:43:18;;;;;;;;;33.50;30.25;;;;;12.44;44.68;99901.97;5063401;28;45290;-59
2023/04/22 04:45:45;;;;;;;;;25.00;21.50;;;;;12.45;44.78;99910.72;5063005;28;45340;-59
2023/04/22 04:48:12;;;;;;;;;37.00;33.50;;;;;12.42;44.69;99908.19;5063127;28;45435;-62
2023/04/22 04:50:37;;;;;;;;;37.25;31.50;;;;;12.44;44.88;99969.59;5063437;28;45385;-62
2023/04/22 04:53:02;;;;;;;;;35.25;31.00;;;;;12.46;44.85;100013.44;5045064;28;45320;-62
2023/04/22 04:55:28;;;;;;;;;33.50;31.75;;;;;12.44;45.22;99965.22;5062940;28;45498;-62
2023/04/22 04:57:53;;;;;;;;;36.00;30.00;;;;;12.41;45.27;99909.13;5062950;28;45733;-62
2023/04/22 05:00:18;;;;;;;;;37.00;32.50;;;;;12.44;45.13;99927.44;5062641;28;45246;-62
2023/04/22 05:02:44;;;;;;;;;38.75;34.00;;;;;12.45;45.25;99939.69;5063220;28;45222;-62
2023/04/22 05:05:10;;;;;;;;;35.25;31.00;;;;;12.46;45.51;99936.16;5044758;28;46479;-62
2023/04/22 05:07:35;;;;;;;;;41.75;34.50;;;;;12.43;45.42;99931.84;5044915;28;47295;-62
2023/04/22 05:10:00;;;;;;;;;39.00;31.00;;;;;12.42;45.70;99924.00;5062527;28;45414;-60
2023/04/22 05:12:26;;;;;;;;;38.25;32.50;;;;;12.44;45.49;99924.81;5062783;28;45232;-60
2023/04/22 05:14:51;;;;;;;;;42.75;34.50;;;;;12.40;45.81;99904.75;5044306;28;45258;-62
2023/04/22 05:17:17;;;;;;;;;33.00;31.00;;;;;12.40;45.97;99920.56;5044657;28;46097;-62
2023/04/22 05:19:43;;;;;;;;;41.00;33.25;;;;;12.41;46.25;99914.38;5062468;28;45300;-62
2023/04/22 05:22:08;;;;;;;;;41.50;34.00;;;;;12.35;46.19;99903.16;5062639;28;45266;-62
2023/04/22 05:24:34;;;;;;;;;41.25;32.50;;;;;12.34;46.23;99934.81;5062422;28;45325;-62
2023/04/22 05:26:59;;;;;;;;;33.00;30.00;;;;;12.34;46.27;99946.22;5062418;28;46302;-62
2023/04/22 05:29:25;;;;;;;;;43.50;32.50;;;;;12.33;46.32;99938.38;5062342;28;45340;-62
2023/04/22 05:31:51;;;;;;;;;39.50;34.50;;;;;12.32;46.24;99945.38;5062784;28;45287;-62
2023/04/22 05:34:16;;;;;;;;;37.50;33.00;;;;;12.34;46.38;99950.63;5044384;28;45285;-62
2023/04/22 05:36:41;;;;;;;;;38.00;32.50;;;;;12.32;46.75;99953.28;5062152;28;46227;-63
2023/04/22 05:39:07;;;;;;;;;38.00;31.75;;;;;12.32;46.66;99958.56;5061983;28;45368;-63
2023/04/22 05:41:32;;;;;;;;;37.75;33.75;;;;;12.32;46.78;99962.97;5061659;28;45371;-63
2023/04/22 05:43:58;;;;;;;;;39.00;33.00;;;;;12.29;46.63;99973.59;5061895;28;45255;-64
2023/04/22 05:46:23;;;;;;;;;45.25;33.75;;;;;12.30;46.82;99949.00;5062200;28;45237;-63
2023/04/22 05:48:48;;;;;;;;;37.75;33.75;;;;;12.29;47.03;99971.84;5062133;28;45224;-64
2023/04/22 05:51:14;;;;;;;;;36.75;32.00;;;;;12.30;47.13;99978.84;5062298;28;45297;-63
2023/04/22 05:53:39;;;;;;;;;40.00;34.75;;;;;12.29;46.94;99987.66;5061857;28;45164;-64
2023/04/22 05:56:05;;;;;;;;;42.00;35.00;;;;;12.30;47.13;99986.75;5061820;28;45250;-64
2023/04/22 05:58:30;;;;;;;;;40.75;33.50;;;;;12.30;47.30;99986.75;5061824;28;45250;-64
2023/04/22 06:00:55;;;;;;;;;39.75;33.50;;;;;12.26;47.48;99956.13;5043839;28;45761;-64
2023/04/22 06:03:21;;;;;;;;;40.00;34.00;;;;;12.26;47.39;99965.81;5061885;28;45590;-64
2023/04/22 06:05:46;;;;;;;;;42.75;34.25;;;;;12.27;47.79;99978.94;5061956;28;45252;-64
2023/04/22 06:08:11;;;;;;;;;36.75;34.25;;;;;12.27;47.57;99978.94;5043730;28;45917;-64
2023/04/22 06:10:37;;;;;;;;;39.50;31.50;;;;;12.27;47.74;99986.00;5045879;28;45305;-63
2023/04/22 06:13:02;;;;;;;;;37.50;33.00;;;;;12.27;47.70;99978.94;5059739;28;45228;-64
2023/04/22 06:15:28;;;;;;;;;36.25;33.25;;;;;12.26;47.70;99977.22;5061488;28;45489;-64
2023/04/22 06:17:53;;;;;;;;;36.25;33.00;;;;;12.27;47.96;99973.66;5061690;28;45406;-63
2023/04/22 06:20:19;;;;;;;;;37.50;33.25;;;;;12.23;48.16;99974.69;5061941;28;45458;-64
2023/04/22 06:22:44;;;;;;;;;38.50;32.75;;;;;12.27;47.88;99981.56;5060272;28;45339;-64
2023/04/22 06:25:10;;;;;;;;;39.25;33.50;;;;;12.26;48.36;99982.47;5061497;28;45917;-64
2023/04/22 06:27:36;;;;;;;;;41.25;33.75;;;;;12.24;48.23;99978.16;5043187;28;45276;-64
2023/04/22 06:30:02;;;;;;;;;37.50;32.50;;;;;12.25;48.35;99986.03;5061495;28;45434;-63
2023/04/22 06:32:27;;;;;;;;;34.75;29.00;;;;;12.23;48.14;99998.41;5061447;28;45452;-64
2023/04/22 06:34:56;;;;;;;;;38.25;33.25;;;;;12.27;48.33;100012.34;5061134;28;57623;-65
2023/04/22 06:37:21;;;;;;;;;38.00;33.00;;;;;12.27;48.69;100012.34;5061134;28;45225;-63
2023/04/22 06:39:46;;;;;;;;;36.25;32.25;;;;;12.24;49.01;100018.56;5061498;28;45186;-64
2023/04/22 06:42:12;;;;;;;;;29.00;29.00;;;;;12.24;48.66;100021.19;5061313;28;45238;-64
2023/04/22 06:44:37;;;;;;;;;36.25;32.75;;;;;12.22;49.10;100006.34;5061161;28;45225;-64
2023/04/22 06:47:03;;;;;;;;;36.25;33.00;;;;;12.24;49.02;100001.88;5061192;28;45325;-64
2023/04/22 06:49:28;;;;;;;;;45.50;35.75;;;;;12.23;48.89;99993.13;5043271;28;45335;-64
2023/04/22 06:51:54;;;;;;;;;38.50;33.50;;;;;12.22;48.87;100001.94;5042955;28;45504;-64
2023/04/22 06:54:19;;;;;;;;;36.75;32.75;;;;;12.23;49.01;99994.91;5061210;28;45324;-64
2023/04/22 06:56:44;;;;;;;;;37.50;33.50;;;;;12.23;49.01;99990.50;5060890;28;45423;-64
2023/04/22 06:59:10;;;;;;;;;39.00;33.00;;;;;12.21;49.10;99989.66;5061007;28;45308;-64
2023/04/22 07:01:35;;;;;;;;;34.25;30.75;;;;;12.19;49.30;99987.09;5060964;28;45348;-64
2023/04/22 07:04:00;;;;;;;;;38.50;32.00;;;;;12.18;49.33;99984.53;5061090;28;46022;-64
2023/04/22 07:06:26;;;;;;;;;39.50;34.00;;;;;12.16;49.24;99978.44;5042607;28;45478;-65
2023/04/22 07:08:52;;;;;;;;;37.50;33.25;;;;;12.18;49.43;99979.25;5060872;28;45445;-64
2023/04/22 07:11:18;;;;;;;;;34.50;30.00;;;;;12.16;49.24;99981.06;5060559;28;45277;-64
2023/04/22 07:13:43;;;;;;;;;39.75;32.50;;;;;12.19;49.66;99978.34;5042363;28;47195;-64
2023/04/22 07:16:08;;;;;;;;;38.00;33.00;;;;;12.18;49.66;99966.09;5060805;28;45251;-64
2023/04/22 07:18:34;;;;;;;;;42.00;33.00;;;;;12.12;49.60;99953.13;5060894;28;45242;-65
2023/04/22 07:21:00;;;;;;;;;33.00;31.50;;;;;12.21;49.67;99968.59;5059446;28;45474;-64
2023/04/22 07:23:25;;;;;;;;;36.75;32.25;;;;;12.17;49.88;99967.84;5060625;28;46212;-64
2023/04/22 07:25:51;;;;;;;;;34.50;30.00;;;;;12.19;49.90;99967.81;5060542;28;45205;-64
2023/04/22 07:28:17;;;;;;;;;40.25;33.50;;;;;12.18;50.00;99972.19;5060733;28;45246;-64
2023/04/22 07:30:42;;;;;;;;;30.75;28.25;;;;;12.18;49.88;99974.84;5060434;28;45293;-64
2023/04/22 07:33:07;;;;;;;;;34.00;32.75;;;;;12.25;50.12;99985.16;5060428;28;45361;-64
2023/04/22 07:35:33;;;;;;;;;31.75;30.00;;;;;12.15;50.19;99967.03;5042371;28;45245;-64
2023/04/22 07:37:58;;;;;;;;;35.25;32.00;;;;;12.26;50.23;99976.34;5042242;28;45497;-64
2023/04/22 07:40:26;;;;;;;;;33.00;30.75;;;;;12.25;50.33;99970.25;5042164;28;45478;-64
2023/04/22 07:42:51;;;;;;;;;36.75;33.00;;;;;12.29;50.47;99963.94;5060435;28;46072;-64
2023/04/22 07:45:18;;;;;;;;;34.75;31.00;;;;;12.31;50.14;99966.53;5041973;28;45340;-64
2023/04/22 07:47:43;;;;;;;;;31.75;27.75;;;;;12.35;50.62;99970.78;5060684;28;45232;-64
2023/04/22 07:50:09;;;;;;;;;35.75;31.00;;;;;12.36;50.59;99975.13;5060241;28;45396;-64
2023/04/22 07:52:35;;;;;;;;;28.00;27.00;;;;;12.39;50.72;99971.53;5060095;28;45356;-64
2023/04/22 07:55:00;;;;;;;;;30.00;27.50;;;;;12.42;50.53;99968.81;5059907;28;45254;-63
2023/04/22 07:57:26;;;;;;;;;30.50;28.25;;;;;12.43;50.74;99957.38;5060322;28;45297;-64
2023/04/22 07:59:51;;;;;;;;;36.75;33.50;;;;;12.44;50.64;99964.31;5041797;28;45740;-64
2023/04/22 08:02:17;;;;;;;;;37.25;31.75;;;;;12.44;50.97;99956.41;5060003;28;46568;-64
2023/04/22 08:04:42;;;;;;;;;31.25;30.00;;;;;12.49;51.07;99978.19;5059556;28;45324;-64
2023/04/22 08:07:08;;;;;;;;;34.75;30.75;;;;;12.48;51.27;99969.44;5060383;28;45181;-64
2023/04/22 08:09:33;;;;;;;;;36.00;30.75;;;;;12.51;51.17;99971.13;5059626;28;45837;-64
2023/04/22 08:12:00;;;;;;;;;31.75;28.25;;;;;12.54;51.43;99978.06;5059740;28;54676;-65
2023/04/22 08:14:25;;;;;;;;;31.00;28.75;;;;;12.53;51.37;99982.47;5041619;28;45338;-65
2023/04/22 08:16:51;;;;;;;;;31.75;30.00;;;;;12.55;51.32;99975.34;5058605;28;45378;-65
2023/04/22 08:19:17;;;;;;;;;27.50;25.75;;;;;12.54;51.79;99959.59;5058497;28;45435;-65
2023/04/22 08:21:43;;;;;;;;;32.00;28.00;;;;;12.56;51.81;99970.97;5042017;28;48155;-65
2023/04/22 08:24:09;;;;;;;;;24.50;23.75;;;;;12.50;52.21;99964.13;5059551;28;45167;-65
2023/04/22 08:26:35;;;;;;;;;29.75;28.75;;;;;12.57;52.11;99976.19;5041785;28;45212;-65
2023/04/22 08:29:01;;;;;;;;;31.75;27.50;;;;;12.62;52.13;99981.31;5059618;28;45539;-65
2023/04/22 08:31:26;;;;;;;;;25.50;24.75;;;;;12.61;52.41;99972.50;5041626;28;47215;-65
2023/04/22 08:33:52;;;;;;;;;25.50;21.50;;;;;12.63;52.54;99975.97;5059524;28;45249;-65
2023/04/22 08:36:17;;;;;;;;;25.00;22.75;;;;;12.66;52.33;99980.28;5059953;28;45224;-65
2023/04/22 08:38:43;;;;;;;;;24.00;20.50;;;;;12.60;52.35;99970.81;5059386;28;45208;-65
2023/04/22 08:41:09;;;;;;;;;24.50;21.50;;;;;12.70;52.32;99997.69;5059590;28;45539;-65
2023/04/22 08:43:35;;;;;;;;;22.00;19.50;;;;;12.66;52.45;99981.13;5059523;28;45421;-65
2023/04/22 08:46:01;;;;;;;;;19.00;18.00;;;;;12.74;53.25;99991.41;5059763;28;45413;-65
2023/04/22 08:48:26;;;;;;;;;25.25;23.00;;;;;12.74;53.00;99990.53;5059430;28;45585;-65
2023/04/22 08:50:52;;;;;;;;;22.00;22.00;;;;;12.76;53.24;99992.22;5059710;28;45344;-65
2023/04/22 08:53:19;;;;;;;;;22.00;21.25;;;;;12.78;53.46;99994.78;5059405;28;45317;-65
2023/04/22 08:55:45;;;;;;;;;22.00;20.00;;;;;12.74;53.49;99980.88;5041445;28;45317;-65
2023/04/22 08:58:11;;;;;;;;;19.75;18.75;;;;;12.80;54.27;100012.31;5058002;28;45841;-65
2023/04/22 09:00:38;;;;;;;;;20.75;20.25;;;;;12.83;54.14;100016.59;5059444;28;45594;-65
2023/04/22 09:03:05;;;;;;;;;19.00;19.00;;;;;12.82;54.18;100001.69;5041240;28;45352;-65
2023/04/22 09:05:32;;;;;;;;;18.75;15.00;;;;;12.83;54.42;100003.41;5059515;28;45342;-64
2023/04/22 09:07:58;;;;;;;;;20.50;18.25;;;;;12.88;54.26;99997.97;5057601;28;45385;-64
2023/04/22 09:10:24;;;;;;;;;24.00;22.00;;;;;12.86;54.56;99999.81;5058939;28;46321;-64
2023/04/22 09:12:50;;;;;;;;;22.00;21.50;;;;;12.93;55.02;100002.16;5059172;28;45319;-64
2023/04/22 09:15:16;;;;;;;;;22.00;20.00;;;;;12.96;54.92;100002.03;5041213;28;45309;-64
2023/04/22 09:17:42;;;;;;;;;21.50;19.00;;;;;13.00;54.95;99998.41;5043335;28;45281;-65
2023/04/22 09:20:08;;;;;;;;;16.50;16.50;;;;;13.05;55.25;100015.84;5062010;28;45247;-65
2023/04/22 09:22:45;;;;;;;;;21.75;19.25;;;;;13.09;55.20;100010.38;5044532;28;45407;-65
2023/04/22 09:25:18;;;;;;;;;24.00;21.75;;;;;13.16;55.45;100005.75;5044459;28;45280;-64
2023/04/22 09:27:50;;;;;;;;;25.50;22.75;;;;;13.19;55.55;100007.41;5044348;28;45348;-65
2023/04/22 09:30:21;;;;;;;;;25.25;22.00;;;;;13.22;55.31;100008.16;5060940;28;47089;-64
2023/04/22 09:32:55;;;;;;;;;25.25;24.25;;;;;13.27;55.91;100016.78;5044094;28;45359;-66
2023/04/22 09:35:35;;;;;;;;;22.25;21.25;;;;;13.27;56.04;100021.16;5044262;28;45361;-66
2023/04/22 09:38:06;;;;;;;;;20.00;18.50;;;;;13.33;56.17;100029.75;5062145;28;45232;-66
2023/04/22 09:40:33;;;;;;;;;20.50;18.25;;;;;13.30;56.84;100013.16;5062103;28;45643;-66
2023/04/22 09:43:01;;;;;;;;;15.00;14.50;;;;;13.36;56.91;100039.31;5062561;28;45435;-65
2023/04/22 09:45:27;;;;;;;;;19.50;16.00;;;;;13.46;57.07;100031.97;5062061;28;45187;-65
2023/04/22 09:47:55;;;;;;;;;17.75;17.75;;;;;13.44;57.22;100036.44;5062274;28;45224;-66
2023/04/22 09:50:21;;;;;;;;;18.25;17.50;;;;;13.50;57.25;100041.47;5061962;28;45327;-66
2023/04/22 09:52:54;;;;;;;;;18.75;15.75;;;;;13.52;57.60;100044.06;5060694;28;45291;-66
2023/04/22 09:55:22;;;;;;;;;18.50;17.00;;;;;13.57;57.51;100050.91;5043874;28;45406;-66
2023/04/22 09:57:50;;;;;;;;;16.50;15.00;;;;;13.60;57.63;100066.59;5061890;28;45344;-65
2023/04/22 10:00:16;;;;;;;;;19.00;17.25;;;;;13.63;57.75;100058.59;5061574;28;46437;-66
2023/04/22 10:02:41;;;;;;;;;24.75;17.75;;;;;13.65;57.45;100066.44;5061925;28;45273;-65
2023/04/22 10:05:08;;;;;;;;;15.00;14.75;;;;;13.65;57.62;100056.72;5062050;28;45202;-65
2023/04/22 10:07:34;;;;;;;;;18.75;17.75;;;;;13.65;57.84;100053.25;5061964;28;45463;-65
2023/04/22 10:10:00;;;;;;;;;20.00;18.75;;;;;13.73;57.40;100066.16;5061294;28;46214;-65
2023/04/22 10:12:26;;;;;;;;;15.50;14.50;;;;;13.75;57.96;100067.81;5061802;28;45508;-65
2023/04/22 10:14:51;;;;;;;;;13.50;13.50;;;;;13.74;58.50;100068.72;5043536;28;45383;-65
2023/04/22 10:17:18;;;;;;;;;17.50;16.25;;;;;13.72;58.06;100062.66;5061730;28;45296;-64
2023/04/22 10:19:46;;;;;;;;;14.75;14.75;;;;;13.72;58.27;100056.50;5060438;28;48108;-65
2023/04/22 10:22:12;;;;;;;;;15.00;15.00;;;;;13.73;58.35;100066.16;5061700;28;45175;-65
2023/04/22 10:24:38;;;;;;;;;14.00;14.00;;;;;13.73;58.08;100063.50;5061771;28;45228;-64
2023/04/22 10:27:09;;;;;;;;;17.75;15.75;;;;;13.74;58.37;100071.38;5061496;28;45345;-64
2023/04/22 10:29:37;;;;;;;;;17.25;15.25;;;;;13.72;58.26;100067.94;5061355;28;46126;-65
2023/04/22 10:32:26;;;;;;;;;16.00;14.00;;;;;13.80;57.92;100078.22;5043233;28;45281;-65
2023/04/22 10:35:12;;;;;;;;;18.25;16.25;;;;;13.78;57.97;100075.59;5051009;28;45817;-65
2023/04/22 10:37:41;;;;;;;;;17.50;15.75;;;;;13.83;58.25;100080.72;5061252;28;45321;-65
2023/04/22 10:40:07;;;;;;;;;14.50;14.50;;;;;13.82;58.67;100066.66;5042780;28;47171;-65
2023/04/22 10:42:32;;;;;;;;;18.75;17.25;;;;;13.85;58.69;100083.28;5059670;28;45516;-65
2023/04/22 10:45:03;;;;;;;;;17.50;14.50;;;;;13.87;58.16;100092.88;5043096;28;45482;-65
2023/04/22 10:47:34;;;;;;;;;15.50;13.00;;;;;13.88;58.49;100099.88;5061238;28;45626;-65
2023/04/22 10:50:15;;;;;;;;;17.00;16.75;;;;;13.91;58.30;100109.47;5043081;28;48120;-65
2023/04/22 10:52:44;;;;;;;;;14.25;14.25;;;;;13.92;58.05;100106.78;5061185;28;45332;-65
2023/04/22 10:55:10;;;;;;;;;14.50;14.25;;;;;13.91;58.25;100110.34;5042945;28;45389;-65
2023/04/22 10:57:44;;;;;;;;;16.00;15.00;;;;;13.91;58.18;100107.72;5059738;28;45680;-65
2023/04/22 11:00:26;;;;;;;;;17.75;16.50;;;;;13.94;58.21;100122.56;5059344;28;48291;-65
2023/04/22 11:02:53;;;;;;;;;18.00;14.00;;;;;13.91;58.36;100114.75;5043018;28;45247;-64
2023/04/22 11:05:20;;;;;;;;;21.75;20.25;;;;;13.94;58.30;100127.84;5061318;28;45395;-64
2023/04/22 11:07:49;;;;;;;;;18.00;18.00;;;;;13.92;58.28;100141.13;5060868;28;45506;-64